Time;durP1;ratioP1;P1;durP2;ratioP2;P2;SDS_P1;SDS_P2;PMS_P1;PMS_P2;Temp;Humidity;BMP_temperature;BMP_pressure;BME280_temperature;BME280_humidity;BME280_pressure;Samples;Min_cycle;Max_cycle;Signal;HPM_P1;HPM_P2
2022/12/24 00:01:15;;;;;;;15.02;10.07;;;6.50;1.00;;;;;;4901233;29;20220;-77
2022/12/24 00:03:42;;;;;;;13.30;10.95;;;6.50;1.00;;;;;;4900925;29;20243;-79
2022/12/24 00:06:16;;;;;;;13.18;10.30;;;6.50;1.00;;;;;;4901497;29;20247;-80
2022/12/24 00:08:48;;;;;;;13.90;9.00;;;6.50;1.00;;;;;;4899329;29;20299;-81
2022/12/24 00:11:19;;;;;;;12.57;9.48;;;6.50;1.00;;;;;;4897602;29;20299;-80
2022/12/24 00:13:56;;;;;;;14.05;11.02;;;6.40;1.00;;;;;;4898410;29;20311;-82
2022/12/24 00:16:23;;;;;;;16.50;10.90;;;6.40;1.00;;;;;;4900891;29;20267;-81
2022/12/24 00:18:50;;;;;;;11.65;9.55;;;6.40;1.00;;;;;;4902826;29;20224;-79
2022/12/24 00:21:20;;;;;;;12.50;9.50;;;6.30;1.00;;;;;;4899391;29;20243;-82
2022/12/24 00:23:50;;;;;;;16.73;10.57;;;6.20;1.00;;;;;;4900034;29;20243;-78
2022/12/24 00:26:18;;;;;;;14.20;11.20;;;6.20;1.00;;;;;;4901245;29;20255;-80
2022/12/24 00:28:50;;;;;;;15.68;11.23;;;6.30;1.00;;;;;;4899991;29;20227;-81
2022/12/24 00:31:21;;;;;;;13.82;10.02;;;6.30;1.00;;;;;;4902985;29;20333;-81
2022/12/24 00:33:50;;;;;;;15.10;11.15;;;6.30;1.00;;;;;;4899256;29;20219;-82
2022/12/24 00:36:19;;;;;;;13.20;10.35;;;6.30;1.00;;;;;;4901114;29;20247;-79
2022/12/24 00:38:53;;;;;;;15.95;10.70;;;6.20;1.00;;;;;;4895530;29;20235;-79
2022/12/24 00:41:28;;;;;;;15.02;10.30;;;6.30;1.00;;;;;;4896470;29;20246;-81
2022/12/24 00:43:57;;;;;;;13.10;9.70;;;6.30;1.00;;;;;;4899601;29;21534;-81
2022/12/24 00:46:29;;;;;;;18.48;11.65;;;6.30;1.00;;;;;;4898810;29;20727;-81
2022/12/24 00:48:56;;;;;;;15.98;10.27;;;6.30;1.00;;;;;;4897349;29;20238;-79
2022/12/24 00:51:29;;;;;;;14.10;10.60;;;6.30;1.00;;;;;;4897997;29;20314;-81
2022/12/24 00:53:56;;;;;;;14.10;10.68;;;6.40;1.00;;;;;;4895900;29;20668;-82
2022/12/24 00:56:32;;;;;;;13.65;10.27;;;6.30;1.00;;;;;;4899196;29;20247;-81
2022/12/24 00:58:59;;;;;;;13.07;9.85;;;6.30;1.00;;;;;;4899488;29;20250;-80
2022/12/24 01:01:36;;;;;;;12.80;9.95;;;6.40;1.00;;;;;;4901181;29;20235;-81
2022/12/24 01:06:50;;;;;;;12.77;9.55;;;6.40;1.00;;;;;;4879473;29;20238;-81
2022/12/24 01:09:17;;;;;;;12.23;10.38;;;6.40;1.00;;;;;;4900793;29;20238;-80
2022/12/24 01:11:50;;;;;;;13.55;10.07;;;6.40;1.00;;;;;;4898155;29;20246;-82
2022/12/24 01:14:20;;;;;;;13.63;10.18;;;6.40;1.00;;;;;;4897131;29;20270;-78
2022/12/24 01:16:50;;;;;;;14.15;8.98;;;6.40;1.00;;;;;;4899764;29;20223;-78
2022/12/24 01:19:17;;;;;;;13.68;11.23;;;6.40;1.00;;;;;;4903622;29;20270;-79
2022/12/24 01:21:51;;;;;;;14.50;10.30;;;6.40;1.00;;;;;;4895784;29;20247;-81
2022/12/24 01:24:18;;;;;;;12.80;9.75;;;6.40;1.00;;;;;;4903440;29;20769;-82
2022/12/24 01:26:51;;;;;;;13.00;9.98;;;6.40;1.00;;;;;;4899863;29;20361;-79
2022/12/24 01:29:18;;;;;;;14.43;10.45;;;6.50;1.00;;;;;;4902463;29;20318;-81
2022/12/24 01:31:50;;;;;;;12.88;9.60;;;6.50;1.00;;;;;;4904612;29;20243;-80
2022/12/24 01:34:17;;;;;;;14.20;10.30;;;6.40;1.00;;;;;;4897986;29;20775;-81
2022/12/24 01:36:45;;;;;;;14.38;9.90;;;6.50;1.00;;;;;;4899571;29;20299;-79
2022/12/24 01:39:12;;;;;;;13.00;9.65;;;6.50;1.00;;;;;;4903468;29;20242;-78
2022/12/24 01:44:30;;;;;;;13.10;9.70;;;6.60;1.00;;;;;;4902469;29;20770;-79
2022/12/24 01:47:03;;;;;;;13.35;9.70;;;6.60;1.00;;;;;;4900435;29;21272;-81
2022/12/24 01:49:31;;;;;;;14.65;9.10;;;6.60;1.00;;;;;;4906955;29;20242;-79
2022/12/24 01:52:09;;;;;;;14.45;10.13;;;6.60;1.00;;;;;;4902378;29;20246;-78
2022/12/24 01:54:41;;;;;;;12.80;8.60;;;6.60;1.00;;;;;;4895473;29;20235;-79
2022/12/24 01:57:18;;;;;;;14.57;10.68;;;6.60;1.00;;;;;;4901986;29;20243;-78
2022/12/24 01:59:55;;;;;;;11.82;9.60;;;6.60;1.00;;;;;;4898874;29;20339;-80
2022/12/24 02:02:23;;;;;;;12.45;9.52;;;6.60;1.00;;;;;;4900734;29;21087;-80
2022/12/24 02:04:57;;;;;;;14.43;9.77;;;6.60;1.00;;;;;;4901280;29;20247;-80
2022/12/24 02:07:29;;;;;;;13.02;9.45;;;6.60;1.00;;;;;;4904149;29;20261;-81
2022/12/24 02:09:58;;;;;;;13.25;9.85;;;6.50;1.00;;;;;;4901877;29;20247;-80
2022/12/24 02:12:30;;;;;;;16.42;10.60;;;6.60;1.00;;;;;;4901750;29;20244;-81
2022/12/24 02:14:59;;;;;;;11.50;9.23;;;6.60;1.00;;;;;;4900959;29;20304;-81
2022/12/24 02:17:34;;;;;;;13.75;10.75;;;6.60;1.00;;;;;;4900505;29;20295;-78
2022/12/24 02:20:42;;;;;;;12.90;9.82;;;6.60;1.00;;;;;;4896387;29;20238;-79
2022/12/24 02:23:37;;;;;;;12.80;9.70;;;6.60;1.00;;;;;;4862016;29;20228;-78
2022/12/24 02:26:31;;;;;;;13.52;10.00;;;6.60;1.00;;;;;;4886807;29;20334;-81
2022/12/24 02:29:31;;;;;;;13.25;9.10;;;6.60;1.00;;;;;;4901786;29;20278;-77
2022/12/24 02:32:03;;;;;;;15.90;10.65;;;6.60;1.00;;;;;;4897667;29;20350;-80
2022/12/24 02:34:36;;;;;;;13.80;10.27;;;6.60;1.00;;;;;;4902398;29;20249;-79
2022/12/24 02:37:10;;;;;;;13.93;10.50;;;6.70;1.00;;;;;;4901970;29;20295;-77
2022/12/24 02:39:43;;;;;;;14.95;10.63;;;6.60;1.00;;;;;;4903273;29;20234;-78
2022/12/24 02:42:15;;;;;;;13.30;9.82;;;6.60;1.00;;;;;;4901088;29;20286;-78
2022/12/24 02:44:50;;;;;;;14.38;11.00;;;6.60;1.00;;;;;;4901346;29;20238;-81
2022/12/24 02:47:21;;;;;;;14.07;9.52;;;6.50;1.00;;;;;;4900726;29;20243;-81
2022/12/24 02:49:51;;;;;;;15.77;10.68;;;6.50;1.00;;;;;;4897520;29;20361;-79
2022/12/24 02:52:33;;;;;;;14.32;11.32;;;6.50;1.00;;;;;;4900480;29;20299;-82
2022/12/24 02:55:04;;;;;;;12.95;11.05;;;6.50;1.00;;;;;;4899267;29;20976;-82
2022/12/24 02:57:51;;;;;;;14.10;10.63;;;6.50;1.00;;;;;;4901777;29;20356;-81
2022/12/24 03:00:20;;;;;;;14.40;11.25;;;6.40;1.00;;;;;;4898494;29;20227;-81
2022/12/24 03:03:09;;;;;;;12.80;10.68;;;6.40;1.00;;;;;;4900457;29;20219;-79
2022/12/24 03:05:44;;;;;;;14.45;10.90;;;6.40;1.00;;;;;;4902065;29;20293;-82
2022/12/24 03:08:17;;;;;;;13.85;10.77;;;6.50;1.00;;;;;;4900632;29;20243;-81
2022/12/24 03:10:52;;;;;;;12.80;9.90;;;6.50;1.00;;;;;;4900577;29;20938;-80
2022/12/24 03:13:22;;;;;;;14.80;11.38;;;6.60;1.00;;;;;;4898019;29;20214;-79
2022/12/24 03:15:52;;;;;;;15.32;10.98;;;6.60;1.00;;;;;;4900151;29;20247;-80
2022/12/24 03:18:23;;;;;;;15.65;11.40;;;6.60;1.00;;;;;;4900545;29;20244;-81
2022/12/24 03:20:56;;;;;;;15.32;11.75;;;6.60;1.00;;;;;;4900899;29;20239;-81
2022/12/24 03:23:23;;;;;;;17.20;11.30;;;6.50;1.00;;;;;;4895924;29;20330;-77
2022/12/24 03:25:55;;;;;;;17.38;11.45;;;6.50;1.00;;;;;;4899050;29;20227;-82
2022/12/24 03:28:33;;;;;;;16.55;12.00;;;6.50;1.00;;;;;;4899309;29;21024;-79
2022/12/24 03:31:02;;;;;;;14.55;11.60;;;6.50;1.00;;;;;;4889661;29;20731;-81
2022/12/24 03:33:33;;;;;;;16.67;11.85;;;6.40;1.00;;;;;;4898547;29;21105;-79
2022/12/24 03:36:00;;;;;;;15.48;11.43;;;6.50;1.00;;;;;;4900197;29;20247;-77
2022/12/24 03:38:35;;;;;;;16.35;12.48;;;6.50;1.00;;;;;;4900592;29;20226;-79
2022/12/24 03:41:02;;;;;;;17.38;13.15;;;6.50;1.00;;;;;;4900524;29;20244;-79
2022/12/24 03:43:32;;;;;;;18.50;11.88;;;6.50;1.00;;;;;;4897677;29;20219;-77
2022/12/24 03:46:08;;;;;;;12.27;10.85;;;6.50;1.00;;;;;;4901070;29;21056;-77
2022/12/24 03:48:37;;;;;;;15.38;11.48;;;6.50;1.00;;;;;;4896886;29;20246;-79
2022/12/24 03:51:05;;;;;;;16.52;11.10;;;6.60;1.00;;;;;;4896546;29;20243;-77
2022/12/24 03:53:33;;;;;;;14.90;11.88;;;6.60;1.00;;;;;;4875316;29;20244;-78
2022/12/24 03:56:00;;;;;;;15.70;12.13;;;6.60;1.00;;;;;;4893994;29;21392;-78
2022/12/24 03:58:27;;;;;;;17.25;12.27;;;6.50;1.00;;;;;;4895476;29;20696;-77
2022/12/24 04:00:54;;;;;;;15.18;11.68;;;6.60;1.00;;;;;;4860914;29;20287;-78
2022/12/24 04:03:21;;;;;;;16.40;11.65;;;6.50;1.00;;;;;;4894888;29;20351;-77
2022/12/24 04:06:01;;;;;;;17.20;10.43;;;6.60;1.00;;;;;;4893569;29;20236;-79
2022/12/24 04:09:03;;;;;;;17.33;11.55;;;6.50;1.00;;;;;;4915124;23;20239;-91
2022/12/24 04:11:55;;;;;;;18.08;11.95;;;6.50;1.00;;;;;;4844034;29;20222;-92
2022/12/24 04:14:35;;;;;;;;;;;;;;;;;;;;;
2022/12/24 04:17:04;;;;;;;14.85;10.43;;;6.50;1.00;;;;;;4903767;28;40848;-90
2022/12/24 04:19:34;;;;;;;14.60;11.00;;;6.40;1.00;;;;;;4920532;29;20230;-91
2022/12/24 04:22:11;;;;;;;14.70;11.05;;;6.40;1.00;;;;;;4916570;28;20347;-92
2022/12/24 04:24:53;;;;;;;16.65;11.77;;;6.30;1.00;;;;;;4917919;29;20217;-91
2022/12/24 04:27:58;;;;;;;;;;;;;;;;;;;;;
2022/12/24 04:30:52;;;;;;;13.75;10.95;;;6.30;1.00;;;;;;4893934;29;47929;-92
2022/12/24 04:33:23;;;;;;;15.65;10.90;;;6.40;1.00;;;;;;4889961;29;20237;-93
2022/12/24 04:36:05;;;;;;;14.18;10.63;;;6.40;1.00;;;;;;4856771;29;20809;-92
2022/12/24 04:38:51;;;;;;;15.40;11.05;;;6.40;1.00;;;;;;4893669;29;20369;-93
2022/12/24 04:42:06;;;;;;;13.75;10.45;;;6.40;1.00;;;;;;4900974;29;20227;-93
2022/12/24 04:44:35;;;;;;;13.75;10.18;;;6.50;1.00;;;;;;4791013;29;20259;-93
2022/12/24 04:47:04;;;;;;;15.38;11.68;;;6.50;1.00;;;;;;4860818;29;20238;-92
2022/12/24 04:49:34;;;;;;;15.55;11.75;;;6.50;1.00;;;;;;4888923;29;20334;-92
2022/12/24 04:55:12;;;;;;;15.95;10.65;;;6.50;1.00;;;;;;4885990;29;20302;-92
2022/12/24 04:57:44;;;;;;;14.38;10.63;;;6.50;1.00;;;;;;4864438;29;20226;-93
2022/12/24 05:06:20;;;;;;;13.75;10.27;;;6.60;1.00;;;;;;4907984;29;20336;-80
2022/12/24 05:08:56;;;;;;;13.02;9.98;;;6.50;1.00;;;;;;4910969;29;20238;-79
2022/12/24 05:11:26;;;;;;;15.30;10.77;;;6.50;1.00;;;;;;4905137;29;20246;-82
2022/12/24 05:13:53;;;;;;;13.27;10.65;;;6.60;1.00;;;;;;4920098;29;20251;-78
2022/12/24 05:16:21;;;;;;;14.60;10.95;;;6.60;1.00;;;;;;4914327;29;20259;-79
2022/12/24 05:18:53;;;;;;;15.15;10.80;;;6.60;1.00;;;;;;4918363;29;20230;-79
2022/12/24 05:21:21;;;;;;;16.98;13.20;;;6.60;1.00;;;;;;4915434;29;20287;-78
2022/12/24 05:26:44;;;;;;;15.75;10.80;;;6.60;1.00;;;;;;4920314;29;20246;-77
2022/12/24 05:29:13;;;;;;;14.95;10.88;;;6.50;1.00;;;;;;4915878;29;20235;-78
2022/12/24 05:31:41;;;;;;;15.38;10.82;;;6.60;1.00;;;;;;4916480;29;20243;-82
2022/12/24 05:34:13;;;;;;;15.07;12.38;;;6.50;1.00;;;;;;4917741;29;20304;-82
2022/12/24 05:36:41;;;;;;;15.27;11.20;;;6.50;1.00;;;;;;4915280;29;20267;-81
2022/12/24 05:39:15;;;;;;;15.38;12.07;;;6.40;1.00;;;;;;4916681;29;20230;-80
2022/12/24 05:41:46;;;;;;;15.45;11.00;;;6.40;1.00;;;;;;4916703;29;20246;-77
2022/12/24 05:44:13;;;;;;;14.65;11.10;;;6.40;1.00;;;;;;4917768;29;20267;-81
2022/12/24 05:46:40;;;;;;;14.82;11.02;;;6.40;1.00;;;;;;4919045;29;20313;-81
2022/12/24 05:49:11;;;;;;;13.68;10.73;;;6.50;1.00;;;;;;4921518;29;20940;-81
2022/12/24 05:51:39;;;;;;;12.73;10.48;;;6.50;1.00;;;;;;4917565;29;21001;-81
2022/12/24 05:54:06;;;;;;;15.32;11.75;;;6.50;1.00;;;;;;4917232;29;20643;-81
2022/12/24 05:56:33;;;;;;;15.05;11.57;;;6.50;1.00;;;;;;4917258;29;20249;-79
2022/12/24 05:59:01;;;;;;;14.90;11.07;;;6.40;1.00;;;;;;4924119;29;20295;-81
2022/12/24 06:01:32;;;;;;;15.15;11.95;;;6.30;1.00;;;;;;4923520;29;20245;-79
2022/12/24 06:03:59;;;;;;;14.88;11.20;;;6.40;1.00;;;;;;4916520;29;20294;-78
2022/12/24 06:06:32;;;;;;;14.27;11.52;;;6.30;1.00;;;;;;4921501;29;20267;-83
2022/12/24 06:08:59;;;;;;;15.65;11.27;;;6.30;1.00;;;;;;4924683;29;20245;-82
2022/12/24 06:11:34;;;;;;;13.75;10.27;;;6.20;1.00;;;;;;4924934;29;20242;-82
2022/12/24 06:14:03;;;;;;;19.00;11.90;;;6.20;1.00;;;;;;4917879;29;20245;-81
2022/12/24 06:16:33;;;;;;;15.45;10.95;;;6.20;1.00;;;;;;4920310;29;20240;-79
2022/12/24 06:19:00;;;;;;;19.02;12.63;;;6.30;1.00;;;;;;4921794;29;20338;-80
2022/12/24 06:21:35;;;;;;;15.15;11.48;;;6.20;1.00;;;;;;4920783;29;20242;-79
2022/12/24 06:24:02;;;;;;;16.35;11.48;;;6.10;1.00;;;;;;4917787;29;20264;-79
2022/12/24 06:26:33;;;;;;;18.13;12.23;;;6.20;1.00;;;;;;4916231;29;20231;-81
2022/12/24 06:29:02;;;;;;;18.17;12.63;;;6.20;1.00;;;;;;4918658;29;20239;-80
2022/12/24 06:31:33;;;;;;;16.27;12.07;;;6.10;1.00;;;;;;4917582;29;20250;-80
2022/12/24 06:34:00;;;;;;;19.13;12.23;;;6.10;1.00;;;;;;4920633;29;20277;-82
2022/12/24 06:36:35;;;;;;;17.25;11.55;;;6.10;1.00;;;;;;4919790;29;20299;-83
2022/12/24 06:39:02;;;;;;;16.98;11.10;;;6.10;1.00;;;;;;4920207;29;20242;-82
2022/12/24 06:41:35;;;;;;;16.15;12.02;;;6.10;1.00;;;;;;4918839;29;20251;-81
2022/12/24 06:44:04;;;;;;;15.20;11.70;;;6.20;1.00;;;;;;4912551;29;20308;-82
2022/12/24 06:46:33;;;;;;;18.80;11.65;;;6.30;1.00;;;;;;4914530;29;20254;-82
2022/12/24 06:49:02;;;;;;;18.58;13.63;;;6.30;1.00;;;;;;4920581;29;21029;-83
2022/12/24 06:51:34;;;;;;;17.48;12.93;;;6.30;1.00;;;;;;4920251;29;20268;-79
2022/12/24 06:54:01;;;;;;;15.30;10.75;;;6.20;1.00;;;;;;4914747;29;20789;-78
2022/12/24 06:56:34;;;;;;;16.00;11.60;;;6.20;1.00;;;;;;4925259;29;20238;-83
2022/12/24 06:59:01;;;;;;;17.67;12.20;;;6.10;1.00;;;;;;4917608;29;20230;-80
2022/12/24 07:01:34;;;;;;;17.13;12.65;;;6.10;1.00;;;;;;4913866;29;20238;-79
2022/12/24 07:04:02;;;;;;;17.27;12.60;;;6.20;1.00;;;;;;4913688;29;20249;-77
2022/12/24 07:06:36;;;;;;;20.33;13.45;;;6.20;1.00;;;;;;4916366;29;20248;-79
2022/12/24 07:09:03;;;;;;;17.58;11.15;;;6.30;1.00;;;;;;4920184;29;20298;-83
2022/12/24 07:11:33;;;;;;;15.50;12.00;;;6.30;1.00;;;;;;4921168;29;20275;-81
2022/12/24 07:14:00;;;;;;;21.73;12.95;;;6.20;1.00;;;;;;4916159;29;20301;-80
2022/12/24 07:16:32;;;;;;;15.60;11.45;;;6.20;1.00;;;;;;4912780;29;20245;-81
2022/12/24 07:19:00;;;;;;;16.83;12.07;;;6.20;1.00;;;;;;4915067;29;20234;-79
2022/12/24 07:21:31;;;;;;;16.35;11.90;;;6.30;1.00;;;;;;4918970;29;20242;-79
2022/12/24 07:23:59;;;;;;;17.65;13.20;;;6.30;1.00;;;;;;4914324;29;20243;-82
2022/12/24 07:26:26;;;;;;;18.58;13.90;;;6.40;1.00;;;;;;4919502;29;20341;-80
2022/12/24 07:28:53;;;;;;;15.60;11.57;;;6.40;1.00;;;;;;4921008;29;20218;-78
2022/12/24 07:31:21;;;;;;;17.85;11.55;;;6.40;1.00;;;;;;4923259;29;20258;-82
2022/12/24 07:33:53;;;;;;;17.48;11.93;;;6.40;1.00;;;;;;4915756;29;20750;-80
2022/12/24 07:36:23;;;;;;;15.52;11.52;;;6.40;1.00;;;;;;4916480;29;20238;-81
2022/12/24 07:38:54;;;;;;;14.85;11.02;;;6.40;1.00;;;;;;4916943;29;20223;-80
2022/12/24 07:41:21;;;;;;;17.55;12.52;;;6.40;1.00;;;;;;4921945;29;20319;-79
2022/12/24 07:43:52;;;;;;;17.02;11.88;;;6.40;1.00;;;;;;4917052;29;20301;-79
2022/12/24 07:46:20;;;;;;;20.80;13.55;;;6.50;1.00;;;;;;4917977;29;20246;-81
2022/12/24 07:48:53;;;;;;;18.90;13.52;;;6.40;1.00;;;;;;4919258;29;20230;-81
2022/12/24 07:51:22;;;;;;;17.13;12.20;;;6.30;1.00;;;;;;4916185;29;20245;-79
2022/12/24 07:53:54;;;;;;;21.30;13.55;;;6.20;1.00;;;;;;4912835;29;20238;-80
2022/12/24 07:56:25;;;;;;;18.67;13.05;;;6.30;1.00;;;;;;4920429;29;20304;-81
2022/12/24 07:58:54;;;;;;;15.75;12.10;;;6.40;1.00;;;;;;4918328;29;20222;-79
2022/12/24 08:01:21;;;;;;;15.80;12.02;;;6.40;1.00;;;;;;4917645;29;20242;-82
2022/12/24 08:03:53;;;;;;;18.48;12.30;;;6.50;1.00;;;;;;4922246;29;20278;-78
2022/12/24 08:06:23;;;;;;;19.90;12.85;;;6.50;1.00;;;;;;4916368;29;20341;-79
2022/12/24 08:08:50;;;;;;;17.13;12.55;;;6.50;1.00;;;;;;4916966;29;20247;-79
2022/12/24 08:11:17;;;;;;;18.25;12.48;;;6.50;1.00;;;;;;4913172;28;20246;-79
2022/12/24 08:13:44;;;;;;;17.33;11.88;;;6.50;1.00;;;;;;4915911;29;20218;-78
2022/12/24 08:16:12;;;;;;;18.38;12.43;;;6.50;1.00;;;;;;4914172;29;20297;-79
2022/12/24 08:18:39;;;;;;;16.55;12.05;;;6.40;1.00;;;;;;4910500;29;20325;-78
2022/12/24 08:21:08;;;;;;;17.92;12.85;;;6.40;1.00;;;;;;4916620;29;20326;-79
2022/12/24 08:23:39;;;;;;;21.88;13.85;;;6.40;1.00;;;;;;4914587;29;20266;-79
2022/12/24 08:26:08;;;;;;;17.77;11.32;;;6.30;1.00;;;;;;4934779;29;20238;-78
2022/12/24 08:28:38;;;;;;;17.27;13.10;;;6.30;1.00;;;;;;4923769;29;21086;-79
2022/12/24 08:31:07;;;;;;;19.67;13.70;;;6.30;1.00;;;;;;4915617;29;20739;-79
2022/12/24 08:33:34;;;;;;;18.63;12.30;;;6.30;1.00;;;;;;4910750;29;20250;-80
2022/12/24 08:36:04;;;;;;;17.25;12.55;;;6.30;1.00;;;;;;4915450;29;20249;-78
2022/12/24 08:38:31;;;;;;;16.85;12.15;;;6.20;1.00;;;;;;4923101;29;21751;-78
2022/12/24 08:41:03;;;;;;;16.77;11.45;;;6.30;1.00;;;;;;4926308;29;20479;-78
2022/12/24 08:43:31;;;;;;;15.45;12.73;;;6.20;1.00;;;;;;4909604;29;20265;-80
2022/12/24 08:46:05;;;;;;;18.17;12.80;;;6.20;1.00;;;;;;4919236;29;20231;-78
2022/12/24 08:48:34;;;;;;;20.33;12.25;;;6.30;1.00;;;;;;4923602;29;20289;-77
2022/12/24 08:51:01;;;;;;;18.10;12.98;;;6.20;1.00;;;;;;4923472;29;20254;-79
2022/12/24 08:53:29;;;;;;;22.35;12.63;;;6.20;1.00;;;;;;4922304;29;20254;-77
2022/12/24 08:56:03;;;;;;;20.23;12.77;;;6.20;1.00;;;;;;4914363;29;20234;-78
2022/12/24 08:58:31;;;;;;;16.52;11.48;;;6.30;1.00;;;;;;4915993;29;20241;-79
2022/12/24 09:00:59;;;;;;;18.77;13.27;;;6.40;1.00;;;;;;4916242;28;20301;-80
2022/12/24 09:03:26;;;;;;;20.67;12.82;;;6.50;1.00;;;;;;4911664;29;20252;-79
2022/12/24 09:05:54;;;;;;;15.23;11.90;;;6.60;1.00;;;;;;4912906;29;20268;-79
2022/12/24 09:08:21;;;;;;;20.00;13.60;;;6.60;1.00;;;;;;4910676;29;20325;-79
2022/12/24 09:10:50;;;;;;;22.08;13.75;;;6.60;1.00;;;;;;4906283;29;20255;-83
2022/12/24 09:13:18;;;;;;;17.92;12.45;;;6.60;1.00;;;;;;4917008;29;20350;-83
2022/12/24 09:15:53;;;;;;;17.67;11.93;;;6.70;1.00;;;;;;4914943;29;20310;-82
2022/12/24 09:18:21;;;;;;;17.35;13.20;;;6.80;1.00;;;;;;4915760;29;20237;-82
2022/12/24 09:20:51;;;;;;;20.02;12.60;;;6.70;1.00;;;;;;4913396;29;20355;-81
2022/12/24 09:23:18;;;;;;;16.55;11.48;;;6.70;1.00;;;;;;4915236;29;20244;-82
2022/12/24 09:25:45;;;;;;;17.92;13.63;;;6.60;1.00;;;;;;4903588;28;20238;-82
2022/12/24 09:28:13;;;;;;;17.10;12.57;;;6.60;1.00;;;;;;4907297;29;20940;-82
2022/12/24 09:30:43;;;;;;;19.40;13.23;;;6.60;1.00;;;;;;4917269;28;20235;-84
2022/12/24 09:33:11;;;;;;;18.05;13.00;;;6.60;1.00;;;;;;4905915;29;20254;-81
2022/12/24 09:35:39;;;;;;;17.98;12.93;;;6.60;1.00;;;;;;4920721;29;20314;-83
2022/12/24 09:38:05;;;;;;;19.38;16.95;;;6.70;1.00;;;;;;4923339;29;20254;-81
2022/12/24 09:40:37;;;;;;;19.52;14.80;;;6.70;1.00;;;;;;4925898;29;20262;-82
2022/12/24 09:43:13;;;;;;;18.63;12.70;;;6.80;1.00;;;;;;4926633;29;20310;-82
2022/12/24 09:45:49;;;;;;;16.95;13.05;;;6.90;1.00;;;;;;4919470;29;20238;-81
2022/12/24 09:48:18;;;;;;;18.75;12.05;;;6.90;1.00;;;;;;4919835;29;20225;-82
2022/12/24 09:50:51;;;;;;;17.27;12.18;;;6.90;1.00;;;;;;4917711;29;20250;-81
2022/12/24 09:53:22;;;;;;;19.38;14.60;;;6.90;1.00;;;;;;4917497;29;20247;-81
2022/12/24 09:55:57;;;;;;;16.45;12.57;;;6.90;1.00;;;;;;4914371;29;20281;-82
2022/12/24 09:58:30;;;;;;;17.30;12.93;;;6.90;1.00;;;;;;4917591;29;20226;-84
2022/12/24 10:00:59;;;;;;;18.90;13.40;;;6.90;1.00;;;;;;4916681;29;20283;-83
2022/12/24 10:03:26;;;;;;;16.70;13.07;;;6.80;1.00;;;;;;4912131;29;20275;-83
2022/12/24 10:06:04;;;;;;;21.02;13.45;;;6.90;1.00;;;;;;4920876;28;20246;-83
2022/12/24 10:08:40;;;;;;;18.90;13.02;;;6.90;1.00;;;;;;4919207;29;20250;-84
2022/12/24 10:11:16;;;;;;;22.55;15.13;;;7.00;1.00;;;;;;4917560;29;20275;-84
2022/12/24 10:13:56;;;;;;;19.95;14.35;;;7.00;1.00;;;;;;4918184;28;20783;-83
2022/12/24 10:16:32;;;;;;;18.15;13.52;;;7.10;1.00;;;;;;4915621;29;20810;-83
2022/12/24 10:19:05;;;;;;;18.83;14.65;;;7.10;1.00;;;;;;4920826;29;20238;-83
2022/12/24 10:21:44;;;;;;;17.52;13.80;;;7.10;1.00;;;;;;4922760;28;20239;-82
2022/12/24 10:24:18;;;;;;;23.58;15.80;;;7.10;1.00;;;;;;4897531;29;20281;-82
2022/12/24 10:26:54;;;;;;;20.20;14.52;;;7.10;1.00;;;;;;4918682;29;20252;-81
2022/12/24 10:29:29;;;;;;;22.85;15.93;;;7.10;1.00;;;;;;4920955;29;20973;-80
2022/12/24 10:32:15;;;;;;;17.20;14.15;;;7.20;1.00;;;;;;4924477;29;20249;-85
2022/12/24 10:34:50;;;;;;;21.45;15.00;;;7.30;1.00;;;;;;4921904;29;20246;-83
2022/12/24 10:37:23;;;;;;;20.85;15.20;;;7.30;1.00;;;;;;4925668;29;20245;-83
2022/12/24 10:39:51;;;;;;;20.95;15.13;;;7.40;1.00;;;;;;4922601;29;20230;-82
2022/12/24 10:42:20;;;;;;;19.60;13.90;;;7.50;1.00;;;;;;4928374;29;20239;-82
2022/12/24 10:44:55;;;;;;;20.08;14.90;;;7.50;1.00;;;;;;4921779;29;20444;-83
2022/12/24 10:47:27;;;;;;;20.40;14.63;;;7.40;1.00;;;;;;4922095;29;20253;-82
2022/12/24 10:50:01;;;;;;;23.80;17.48;;;7.50;1.00;;;;;;4915477;29;20719;-82
2022/12/24 10:52:52;;;;;;;21.15;15.68;;;7.50;1.00;;;;;;4907958;28;20359;-84
2022/12/24 10:55:27;;;;;;;21.80;15.63;;;7.50;1.00;;;;;;4898037;29;20316;-83
2022/12/24 10:58:16;;;;;;;20.88;15.70;;;7.50;1.00;;;;;;4881987;29;20245;-83
2022/12/24 11:00:56;;;;;;;24.90;18.10;;;7.60;1.00;;;;;;4885733;29;20243;-83
2022/12/24 11:03:53;;;;;;;21.58;16.75;;;7.70;1.00;;;;;;4891869;29;20303;-83
2022/12/24 11:06:25;;;;;;;24.40;15.68;;;7.80;1.00;;;;;;4859413;29;20248;-83
2022/12/24 11:08:52;;;;;;;23.97;17.90;;;7.90;1.00;;;;;;4869007;29;20335;-83
2022/12/24 11:11:23;;;;;;;24.63;18.00;;;8.00;1.00;;;;;;4892907;29;21353;-84
2022/12/24 11:14:06;;;;;;;22.58;17.20;;;8.00;1.00;;;;;;4895789;29;20251;-87
2022/12/24 11:16:45;;;;;;;;;;;;;;;;;;;;;
2022/12/24 11:19:23;;;;;;;15.95;11.80;;;8.10;1.00;;;;;;4894024;29;50907;-86
2022/12/24 11:22:24;;;;;;;14.93;11.97;;;8.10;1.00;;;;;;4900053;29;21146;-86
2022/12/24 11:25:06;;;;;;;14.27;10.60;;;8.00;1.00;;;;;;4881359;29;20467;-84
2022/12/24 11:27:50;;;;;;;13.57;10.65;;;8.00;1.00;;;;;;4900478;29;21011;-85
2022/12/24 11:30:35;;;;;;;16.15;10.68;;;8.00;1.00;;;;;;4909640;29;21190;-84
2022/12/24 11:33:24;;;;;;;13.45;10.05;;;8.10;1.00;;;;;;4895366;29;20249;-84
2022/12/24 11:36:11;;;;;;;12.35;9.75;;;8.10;1.00;;;;;;4881201;29;20239;-87
2022/12/24 11:38:55;;;;;;;14.70;10.10;;;8.10;1.00;;;;;;4904493;29;21022;-86
2022/12/24 11:41:25;;;;;;;14.05;10.95;;;8.20;1.00;;;;;;4903604;29;20249;-85
2022/12/24 11:44:11;;;;;;;13.82;11.65;;;8.20;1.00;;;;;;4897162;29;20255;-85
2022/12/24 11:46:45;;;;;;;15.25;12.13;;;8.30;1.00;;;;;;4894980;29;20274;-85
2022/12/24 11:49:33;;;;;;;15.90;11.40;;;8.30;1.00;;;;;;4889796;29;20339;-86
2022/12/24 11:52:24;;;;;;;13.90;10.75;;;8.30;1.00;;;;;;4895692;29;20230;-87
2022/12/24 11:55:24;;;;;;;14.20;10.90;;;8.30;1.00;;;;;;4899822;29;20856;-88
2022/12/24 12:01:11;;;;;;;11.85;9.48;;;8.30;1.00;;;;;;4886229;29;20247;-85
2022/12/24 12:03:52;;;;;;;13.48;10.18;;;8.40;1.00;;;;;;4896741;28;20234;-85
2022/12/24 12:06:33;;;;;;;12.80;10.47;;;8.40;1.00;;;;;;4909962;29;20271;-83
2022/12/24 12:09:12;;;;;;;13.27;9.90;;;8.40;1.00;;;;;;4905269;29;21268;-85
2022/12/24 12:11:52;;;;;;;11.82;8.65;;;8.40;1.00;;;;;;4918764;29;20246;-86
2022/12/24 12:14:46;;;;;;;11.48;9.38;;;8.30;1.00;;;;;;4905683;29;20324;-86
2022/12/24 12:17:31;;;;;;;10.65;8.13;;;8.30;1.00;;;;;;4895280;29;20238;-85
2022/12/24 12:20:23;;;;;;;11.85;8.38;;;8.20;1.00;;;;;;4870960;29;20255;-84
2022/12/24 12:22:58;;;;;;;11.25;8.50;;;8.20;1.00;;;;;;4882671;29;20251;-85
2022/12/24 12:25:41;;;;;;;11.82;9.05;;;8.20;1.00;;;;;;4916083;29;20260;-85
2022/12/24 12:28:27;;;;;;;10.90;9.00;;;8.20;1.00;;;;;;4898636;28;20278;-84
2022/12/24 12:31:05;;;;;;;10.63;8.35;;;8.40;1.00;;;;;;4873441;29;20602;-84
2022/12/24 12:33:48;;;;;;;17.00;12.90;;;8.50;1.00;;;;;;4909217;28;20226;-82
2022/12/24 12:36:21;;;;;;;13.37;9.37;;;8.50;1.00;;;;;;4899017;29;20249;-85
2022/12/24 12:38:49;;;;;;;10.97;9.20;;;8.70;1.00;;;;;;4905667;29;21292;-84
2022/12/24 12:41:43;;;;;;;12.03;9.07;;;8.80;1.00;;;;;;4893044;29;20468;-86
2022/12/24 12:44:49;;;;;;;13.10;9.85;;;8.90;1.00;;;;;;4908035;29;20472;-84
2022/12/24 12:47:51;;;;;;;15.20;10.00;;;9.10;1.00;;;;;;4888158;29;20235;-86
2022/12/24 12:50:28;;;;;;;12.53;10.90;;;9.30;1.00;;;;;;4894143;29;20889;-83
2022/12/24 12:53:30;;;;;;;13.10;9.57;;;9.30;1.00;;;;;;4915090;29;20549;-83
2022/12/24 12:56:08;;;;;;;12.90;10.30;;;9.30;1.00;;;;;;4902342;28;20465;-83
2022/12/24 12:58:38;;;;;;;16.33;11.07;;;9.30;1.00;;;;;;4909192;29;21131;-83
2022/12/24 13:01:13;;;;;;;14.90;9.33;;;9.40;1.00;;;;;;4887921;29;20451;-85
2022/12/24 13:04:04;;;;;;;13.87;10.10;;;9.30;1.00;;;;;;4915910;29;20475;-83
2022/12/24 13:06:52;;;;;;;13.33;9.40;;;9.40;1.00;;;;;;4907859;29;20462;-83
2022/12/24 13:09:48;;;;;;;11.40;9.60;;;9.40;1.00;;;;;;4904136;29;21311;-80
2022/12/24 13:16:07;;;;;;;13.97;10.03;;;9.50;1.00;;;;;;4891272;29;21021;-84
2022/12/24 13:18:52;;;;;;;15.30;10.07;;;9.60;1.00;;;;;;4890445;29;21267;-84
2022/12/24 13:21:34;;;;;;;15.23;10.30;;;9.50;1.00;;;;;;4920117;29;20440;-87
2022/12/24 13:24:14;;;;;;;14.70;10.17;;;9.50;1.00;;;;;;4875917;29;20437;-87
2022/12/24 13:27:06;;;;;;;15.33;11.00;;;9.60;1.00;;;;;;4890626;28;20427;-85
2022/12/24 13:29:52;;;;;;;14.43;9.20;;;9.60;1.00;;;;;;4904698;28;20471;-87
2022/12/24 13:32:56;;;;;;;11.17;8.67;;;9.70;1.00;;;;;;4909746;29;20508;-87
2022/12/24 13:36:05;;;;;;;11.30;9.30;;;9.80;1.00;;;;;;4894607;28;20477;-87
2022/12/24 13:38:47;;;;;;;12.40;8.50;;;9.90;1.00;;;;;;4905192;29;20528;-87
2022/12/24 13:42:04;;;;;;;14.47;8.70;;;9.90;1.00;;;;;;4890794;28;20435;-85
2022/12/24 13:44:34;;;;;;;11.47;7.47;;;9.80;1.00;;;;;;4901170;28;20638;-85
2022/12/24 13:47:28;;;;;;;15.30;8.30;;;9.70;1.00;;;;;;4897109;29;20432;-84
2022/12/24 13:52:56;;;;;;;13.57;9.27;;;9.60;1.00;;;;;;4883684;29;20424;-85
2022/12/24 13:55:25;;;;;;;11.17;8.03;;;9.50;1.00;;;;;;4923331;29;20482;-84
2022/12/24 13:58:06;;;;;;;12.53;8.33;;;9.40;1.00;;;;;;4896442;29;20444;-84